sensor_id;sensor_type;location;lat;lon;timestamp;P1;durP1;ratioP1;P2;durP2;ratioP2
4835;SDS011;66719;51.226;6.902;2023-04-15T00:00:57;14.77;;;4.53;;
4835;SDS011;66719;51.226;6.902;2023-04-15T00:03:24;16.77;;;5.30;;
4835;SDS011;66719;51.226;6.902;2023-04-15T00:05:52;16.40;;;4.47;;
4835;SDS011;66719;51.226;6.902;2023-04-15T00:08:18;15.67;;;5.10;;
4835;SDS011;66719;51.226;6.902;2023-04-15T00:10:45;14.63;;;4.60;;
4835;SDS011;66719;51.226;6.902;2023-04-15T00:13:12;20.37;;;5.27;;
4835;SDS011;66719;51.226;6.902;2023-04-15T00:15:38;15.53;;;4.83;;
4835;SDS011;66719;51.226;6.902;2023-04-15T00:18:05;13.53;;;4.47;;
4835;SDS011;66719;51.226;6.902;2023-04-15T00:20:33;14.43;;;4.80;;
4835;SDS011;66719;51.226;6.902;2023-04-15T00:23:01;14.67;;;5.10;;
4835;SDS011;66719;51.226;6.902;2023-04-15T00:25:29;20.23;;;4.97;;
4835;SDS011;66719;51.226;6.902;2023-04-15T00:27:55;17.90;;;5.13;;
4835;SDS011;66719;51.226;6.902;2023-04-15T00:30:22;13.50;;;4.83;;
4835;SDS011;66719;51.226;6.902;2023-04-15T00:32:49;17.10;;;5.60;;
4835;SDS011;66719;51.226;6.902;2023-04-15T00:35:15;16.90;;;6.00;;
4835;SDS011;66719;51.226;6.902;2023-04-15T00:37:42;13.97;;;5.07;;
4835;SDS011;66719;51.226;6.902;2023-04-15T00:40:12;21.33;;;4.87;;
4835;SDS011;66719;51.226;6.902;2023-04-15T00:42:39;17.60;;;5.00;;
4835;SDS011;66719;51.226;6.902;2023-04-15T00:45:06;21.57;;;5.03;;
4835;SDS011;66719;51.226;6.902;2023-04-15T00:47:34;18.53;;;5.17;;
4835;SDS011;66719;51.226;6.902;2023-04-15T00:50:02;15.97;;;4.80;;
4835;SDS011;66719;51.226;6.902;2023-04-15T00:52:30;14.40;;;4.70;;
4835;SDS011;66719;51.226;6.902;2023-04-15T00:54:57;17.77;;;4.40;;
4835;SDS011;66719;51.226;6.902;2023-04-15T00:57:24;15.50;;;5.50;;
4835;SDS011;66719;51.226;6.902;2023-04-15T00:59:52;19.83;;;4.97;;
4835;SDS011;66719;51.226;6.902;2023-04-15T01:02:20;13.87;;;5.30;;
4835;SDS011;66719;51.226;6.902;2023-04-15T01:04:47;16.10;;;6.37;;
4835;SDS011;66719;51.226;6.902;2023-04-15T01:07:14;21.67;;;5.53;;
4835;SDS011;66719;51.226;6.902;2023-04-15T01:09:41;19.63;;;5.67;;
4835;SDS011;66719;51.226;6.902;2023-04-15T01:12:09;16.83;;;5.50;;
4835;SDS011;66719;51.226;6.902;2023-04-15T01:14:39;17.23;;;5.70;;
4835;SDS011;66719;51.226;6.902;2023-04-15T01:17:06;22.60;;;6.10;;
4835;SDS011;66719;51.226;6.902;2023-04-15T01:19:32;15.87;;;5.83;;
4835;SDS011;66719;51.226;6.902;2023-04-15T01:21:59;18.70;;;6.40;;
4835;SDS011;66719;51.226;6.902;2023-04-15T01:24:25;19.20;;;5.47;;
4835;SDS011;66719;51.226;6.902;2023-04-15T01:26:53;14.13;;;5.40;;
4835;SDS011;66719;51.226;6.902;2023-04-15T01:29:20;14.37;;;5.40;;
4835;SDS011;66719;51.226;6.902;2023-04-15T01:31:50;20.23;;;5.70;;
4835;SDS011;66719;51.226;6.902;2023-04-15T01:34:18;20.63;;;5.40;;
4835;SDS011;66719;51.226;6.902;2023-04-15T01:36:44;15.33;;;5.67;;
4835;SDS011;66719;51.226;6.902;2023-04-15T01:39:11;15.30;;;5.40;;
4835;SDS011;66719;51.226;6.902;2023-04-15T01:41:38;19.77;;;5.80;;
4835;SDS011;66719;51.226;6.902;2023-04-15T01:44:05;17.47;;;5.70;;
4835;SDS011;66719;51.226;6.902;2023-04-15T01:46:33;15.20;;;4.73;;
4835;SDS011;66719;51.226;6.902;2023-04-15T01:49:01;14.80;;;5.17;;
4835;SDS011;66719;51.226;6.902;2023-04-15T01:51:28;20.30;;;5.80;;
4835;SDS011;66719;51.226;6.902;2023-04-15T01:53:54;19.10;;;6.33;;
4835;SDS011;66719;51.226;6.902;2023-04-15T01:56:24;21.13;;;5.47;;
4835;SDS011;66719;51.226;6.902;2023-04-15T01:58:50;18.10;;;6.00;;
4835;SDS011;66719;51.226;6.902;2023-04-15T02:01:17;15.40;;;5.53;;
4835;SDS011;66719;51.226;6.902;2023-04-15T02:03:47;16.00;;;5.27;;
4835;SDS011;66719;51.226;6.902;2023-04-15T02:06:14;16.53;;;5.73;;
4835;SDS011;66719;51.226;6.902;2023-04-15T02:08:41;16.10;;;4.77;;
4835;SDS011;66719;51.226;6.902;2023-04-15T02:11:07;21.33;;;5.60;;
4835;SDS011;66719;51.226;6.902;2023-04-15T02:13:34;15.13;;;5.50;;
4835;SDS011;66719;51.226;6.902;2023-04-15T02:16:01;15.43;;;5.60;;
4835;SDS011;66719;51.226;6.902;2023-04-15T02:18:28;14.87;;;5.33;;
4835;SDS011;66719;51.226;6.902;2023-04-15T02:20:55;16.27;;;6.10;;
4835;SDS011;66719;51.226;6.902;2023-04-15T02:23:23;17.07;;;5.60;;
4835;SDS011;66719;51.226;6.902;2023-04-15T02:25:49;19.03;;;6.30;;
4835;SDS011;66719;51.226;6.902;2023-04-15T02:28:19;16.80;;;5.33;;
4835;SDS011;66719;51.226;6.902;2023-04-15T02:30:46;19.27;;;6.20;;
4835;SDS011;66719;51.226;6.902;2023-04-15T02:33:18;17.10;;;6.00;;
4835;SDS011;66719;51.226;6.902;2023-04-15T02:35:46;15.53;;;5.47;;
4835;SDS011;66719;51.226;6.902;2023-04-15T02:38:13;18.73;;;5.67;;
4835;SDS011;66719;51.226;6.902;2023-04-15T02:40:41;17.60;;;5.07;;
4835;SDS011;66719;51.226;6.902;2023-04-15T02:43:08;16.70;;;5.97;;
4835;SDS011;66719;51.226;6.902;2023-04-15T02:45:34;14.67;;;5.17;;
4835;SDS011;66719;51.226;6.902;2023-04-15T02:48:01;17.70;;;6.03;;
4835;SDS011;66719;51.226;6.902;2023-04-15T02:50:31;15.70;;;5.63;;
4835;SDS011;66719;51.226;6.902;2023-04-15T02:52:58;14.20;;;5.50;;
4835;SDS011;66719;51.226;6.902;2023-04-15T02:55:26;16.63;;;5.00;;
4835;SDS011;66719;51.226;6.902;2023-04-15T02:57:53;14.43;;;5.40;;
4835;SDS011;66719;51.226;6.902;2023-04-15T03:00:19;14.50;;;5.47;;
4835;SDS011;66719;51.226;6.902;2023-04-15T03:02:46;18.17;;;5.30;;
4835;SDS011;66719;51.226;6.902;2023-04-15T03:05:15;16.57;;;5.73;;
4835;SDS011;66719;51.226;6.902;2023-04-15T03:07:41;16.50;;;6.20;;
4835;SDS011;66719;51.226;6.902;2023-04-15T03:10:08;18.23;;;7.37;;
4835;SDS011;66719;51.226;6.902;2023-04-15T03:12:35;16.73;;;5.90;;
4835;SDS011;66719;51.226;6.902;2023-04-15T03:15:02;16.27;;;5.90;;
4835;SDS011;66719;51.226;6.902;2023-04-15T03:17:28;22.37;;;5.80;;
4835;SDS011;66719;51.226;6.902;2023-04-15T03:19:55;16.03;;;5.70;;
4835;SDS011;66719;51.226;6.902;2023-04-15T03:22:22;16.67;;;5.40;;
4835;SDS011;66719;51.226;6.902;2023-04-15T03:24:48;16.37;;;6.03;;
4835;SDS011;66719;51.226;6.902;2023-04-15T03:27:15;13.27;;;5.40;;
4835;SDS011;66719;51.226;6.902;2023-04-15T03:29:41;21.17;;;6.30;;
4835;SDS011;66719;51.226;6.902;2023-04-15T03:32:08;19.57;;;7.00;;
4835;SDS011;66719;51.226;6.902;2023-04-15T03:34:34;13.67;;;6.00;;
4835;SDS011;66719;51.226;6.902;2023-04-15T03:37:01;16.37;;;6.43;;
4835;SDS011;66719;51.226;6.902;2023-04-15T03:39:27;18.77;;;6.73;;
4835;SDS011;66719;51.226;6.902;2023-04-15T03:41:54;18.73;;;5.73;;
4835;SDS011;66719;51.226;6.902;2023-04-15T03:44:21;14.77;;;5.67;;
4835;SDS011;66719;51.226;6.902;2023-04-15T03:46:47;15.87;;;6.00;;
4835;SDS011;66719;51.226;6.902;2023-04-15T03:49:14;13.50;;;5.37;;
4835;SDS011;66719;51.226;6.902;2023-04-15T03:51:41;13.63;;;5.00;;
4835;SDS011;66719;51.226;6.902;2023-04-15T03:54:07;17.63;;;6.13;;
4835;SDS011;66719;51.226;6.902;2023-04-15T03:56:34;16.00;;;5.97;;
4835;SDS011;66719;51.226;6.902;2023-04-15T03:59:01;13.10;;;5.20;;
4835;SDS011;66719;51.226;6.902;2023-04-15T04:01:28;17.70;;;6.40;;
4835;SDS011;66719;51.226;6.902;2023-04-15T04:03:54;15.73;;;6.60;;
4835;SDS011;66719;51.226;6.902;2023-04-15T04:06:21;14.50;;;5.53;;
4835;SDS011;66719;51.226;6.902;2023-04-15T04:08:48;19.63;;;6.27;;
4835;SDS011;66719;51.226;6.902;2023-04-15T04:11:14;17.80;;;6.70;;
4835;SDS011;66719;51.226;6.902;2023-04-15T04:13:41;15.13;;;5.70;;
4835;SDS011;66719;51.226;6.902;2023-04-15T04:16:07;20.63;;;6.83;;
4835;SDS011;66719;51.226;6.902;2023-04-15T04:18:34;14.63;;;5.60;;
4835;SDS011;66719;51.226;6.902;2023-04-15T04:21:01;14.27;;;6.17;;
4835;SDS011;66719;51.226;6.902;2023-04-15T04:23:27;14.50;;;6.20;;
4835;SDS011;66719;51.226;6.902;2023-04-15T04:25:54;13.97;;;5.80;;
4835;SDS011;66719;51.226;6.902;2023-04-15T04:28:20;15.30;;;6.20;;
4835;SDS011;66719;51.226;6.902;2023-04-15T04:30:47;15.13;;;5.30;;
4835;SDS011;66719;51.226;6.902;2023-04-15T04:33:13;16.43;;;6.53;;
4835;SDS011;66719;51.226;6.902;2023-04-15T04:35:40;17.50;;;6.70;;
4835;SDS011;66719;51.226;6.902;2023-04-15T04:38:06;14.30;;;6.10;;
4835;SDS011;66719;51.226;6.902;2023-04-15T04:40:33;14.57;;;6.77;;
4835;SDS011;66719;51.226;6.902;2023-04-15T04:42:59;15.83;;;6.80;;
4835;SDS011;66719;51.226;6.902;2023-04-15T04:45:26;19.23;;;6.37;;
4835;SDS011;66719;51.226;6.902;2023-04-15T04:47:52;15.30;;;6.10;;
4835;SDS011;66719;51.226;6.902;2023-04-15T04:50:19;15.40;;;6.30;;
4835;SDS011;66719;51.226;6.902;2023-04-15T04:52:45;17.10;;;6.17;;
4835;SDS011;66719;51.226;6.902;2023-04-15T04:55:12;13.27;;;6.17;;
4835;SDS011;66719;51.226;6.902;2023-04-15T04:57:38;17.17;;;6.50;;
4835;SDS011;66719;51.226;6.902;2023-04-15T05:00:05;22.43;;;7.17;;
4835;SDS011;66719;51.226;6.902;2023-04-15T05:02:33;20.40;;;6.33;;
4835;SDS011;66719;51.226;6.902;2023-04-15T05:05:00;13.53;;;5.47;;
4835;SDS011;66719;51.226;6.902;2023-04-15T05:07:27;16.07;;;6.60;;
4835;SDS011;66719;51.226;6.902;2023-04-15T05:09:53;14.87;;;5.77;;
4835;SDS011;66719;51.226;6.902;2023-04-15T05:12:20;15.23;;;5.80;;
4835;SDS011;66719;51.226;6.902;2023-04-15T05:14:46;17.23;;;6.07;;
4835;SDS011;66719;51.226;6.902;2023-04-15T05:17:13;16.67;;;6.20;;
4835;SDS011;66719;51.226;6.902;2023-04-15T05:19:39;17.30;;;6.00;;
4835;SDS011;66719;51.226;6.902;2023-04-15T05:22:06;15.10;;;7.07;;
4835;SDS011;66719;51.226;6.902;2023-04-15T05:24:33;15.30;;;5.90;;
4835;SDS011;66719;51.226;6.902;2023-04-15T05:26:59;19.47;;;7.77;;
4835;SDS011;66719;51.226;6.902;2023-04-15T05:29:27;16.07;;;7.00;;
4835;SDS011;66719;51.226;6.902;2023-04-15T05:31:53;26.70;;;6.70;;
4835;SDS011;66719;51.226;6.902;2023-04-15T05:34:20;16.80;;;5.80;;
4835;SDS011;66719;51.226;6.902;2023-04-15T05:36:47;16.00;;;5.20;;
4835;SDS011;66719;51.226;6.902;2023-04-15T05:39:14;15.53;;;6.37;;
4835;SDS011;66719;51.226;6.902;2023-04-15T05:41:40;20.00;;;6.83;;
4835;SDS011;66719;51.226;6.902;2023-04-15T05:44:07;15.10;;;6.03;;
4835;SDS011;66719;51.226;6.902;2023-04-15T05:46:33;16.00;;;6.60;;
4835;SDS011;66719;51.226;6.902;2023-04-15T05:49:00;16.53;;;6.70;;
4835;SDS011;66719;51.226;6.902;2023-04-15T05:51:27;16.50;;;6.90;;
4835;SDS011;66719;51.226;6.902;2023-04-15T05:53:53;13.23;;;5.83;;
4835;SDS011;66719;51.226;6.902;2023-04-15T05:56:20;16.53;;;7.93;;
4835;SDS011;66719;51.226;6.902;2023-04-15T05:58:47;18.37;;;8.17;;
4835;SDS011;66719;51.226;6.902;2023-04-15T06:01:13;16.63;;;8.30;;
4835;SDS011;66719;51.226;6.902;2023-04-15T06:03:40;22.57;;;10.60;;
4835;SDS011;66719;51.226;6.902;2023-04-15T06:06:08;17.70;;;8.80;;
4835;SDS011;66719;51.226;6.902;2023-04-15T06:08:35;20.40;;;10.30;;
4835;SDS011;66719;51.226;6.902;2023-04-15T06:11:01;20.17;;;9.17;;
4835;SDS011;66719;51.226;6.902;2023-04-15T06:13:28;22.17;;;8.63;;
4835;SDS011;66719;51.226;6.902;2023-04-15T06:15:54;20.83;;;10.13;;
4835;SDS011;66719;51.226;6.902;2023-04-15T06:18:21;20.33;;;10.67;;
4835;SDS011;66719;51.226;6.902;2023-04-15T06:20:47;20.63;;;9.60;;
4835;SDS011;66719;51.226;6.902;2023-04-15T06:23:14;22.60;;;10.43;;
4835;SDS011;66719;51.226;6.902;2023-04-15T06:25:40;19.10;;;10.27;;
4835;SDS011;66719;51.226;6.902;2023-04-15T06:28:07;18.60;;;9.57;;
4835;SDS011;66719;51.226;6.902;2023-04-15T06:30:33;22.57;;;10.80;;
4835;SDS011;66719;51.226;6.902;2023-04-15T06:33:01;21.03;;;10.60;;
4835;SDS011;66719;51.226;6.902;2023-04-15T06:35:30;20.70;;;9.83;;
4835;SDS011;66719;51.226;6.902;2023-04-15T06:37:57;21.30;;;10.17;;
4835;SDS011;66719;51.226;6.902;2023-04-15T06:40:23;21.77;;;10.43;;
4835;SDS011;66719;51.226;6.902;2023-04-15T06:42:50;20.27;;;10.00;;
4835;SDS011;66719;51.226;6.902;2023-04-15T06:45:16;18.47;;;8.60;;
4835;SDS011;66719;51.226;6.902;2023-04-15T06:47:43;17.60;;;8.53;;
4835;SDS011;66719;51.226;6.902;2023-04-15T06:50:09;16.97;;;8.80;;
4835;SDS011;66719;51.226;6.902;2023-04-15T06:52:36;19.70;;;8.63;;
4835;SDS011;66719;51.226;6.902;2023-04-15T06:55:03;16.03;;;8.20;;
4835;SDS011;66719;51.226;6.902;2023-04-15T06:57:30;16.43;;;8.30;;
4835;SDS011;66719;51.226;6.902;2023-04-15T07:00:00;21.57;;;7.83;;
4835;SDS011;66719;51.226;6.902;2023-04-15T07:02:26;14.97;;;7.90;;
4835;SDS011;66719;51.226;6.902;2023-04-15T07:04:53;14.73;;;7.00;;
4835;SDS011;66719;51.226;6.902;2023-04-15T07:07:20;19.57;;;7.27;;
4835;SDS011;66719;51.226;6.902;2023-04-15T07:09:47;16.23;;;7.93;;
4835;SDS011;66719;51.226;6.902;2023-04-15T07:12:13;15.97;;;7.20;;
4835;SDS011;66719;51.226;6.902;2023-04-15T07:14:40;15.33;;;6.83;;
4835;SDS011;66719;51.226;6.902;2023-04-15T07:17:07;14.87;;;6.80;;
4835;SDS011;66719;51.226;6.902;2023-04-15T07:19:34;15.37;;;7.00;;
4835;SDS011;66719;51.226;6.902;2023-04-15T07:22:02;15.80;;;6.60;;
4835;SDS011;66719;51.226;6.902;2023-04-15T07:24:29;14.23;;;6.70;;
4835;SDS011;66719;51.226;6.902;2023-04-15T07:26:56;16.80;;;6.53;;
4835;SDS011;66719;51.226;6.902;2023-04-15T07:29:26;19.60;;;7.80;;
4835;SDS011;66719;51.226;6.902;2023-04-15T07:31:52;19.53;;;7.97;;
4835;SDS011;66719;51.226;6.902;2023-04-15T07:34:19;15.63;;;7.03;;
4835;SDS011;66719;51.226;6.902;2023-04-15T07:36:46;15.33;;;7.50;;
4835;SDS011;66719;51.226;6.902;2023-04-15T07:39:15;15.67;;;7.57;;
4835;SDS011;66719;51.226;6.902;2023-04-15T07:41:42;14.90;;;7.13;;
4835;SDS011;66719;51.226;6.902;2023-04-15T07:44:09;15.73;;;6.50;;
4835;SDS011;66719;51.226;6.902;2023-04-15T07:46:36;12.37;;;5.77;;
4835;SDS011;66719;51.226;6.902;2023-04-15T07:49:03;16.80;;;6.70;;
4835;SDS011;66719;51.226;6.902;2023-04-15T07:51:30;14.27;;;6.10;;
4835;SDS011;66719;51.226;6.902;2023-04-15T07:53:57;13.20;;;5.37;;
4835;SDS011;66719;51.226;6.902;2023-04-15T07:56:24;12.10;;;4.80;;
4835;SDS011;66719;51.226;6.902;2023-04-15T07:58:51;12.17;;;5.03;;
4835;SDS011;66719;51.226;6.902;2023-04-15T08:01:18;12.73;;;5.67;;
4835;SDS011;66719;51.226;6.902;2023-04-15T08:03:44;11.40;;;5.13;;
4835;SDS011;66719;51.226;6.902;2023-04-15T08:06:11;12.00;;;5.20;;
4835;SDS011;66719;51.226;6.902;2023-04-15T08:08:38;9.80;;;4.03;;
4835;SDS011;66719;51.226;6.902;2023-04-15T08:11:04;12.37;;;5.17;;
4835;SDS011;66719;51.226;6.902;2023-04-15T08:13:31;13.07;;;5.70;;
4835;SDS011;66719;51.226;6.902;2023-04-15T08:16:17;11.27;;;4.47;;
4835;SDS011;66719;51.226;6.902;2023-04-15T08:18:45;13.10;;;5.47;;
4835;SDS011;66719;51.226;6.902;2023-04-15T08:21:12;13.10;;;6.13;;
4835;SDS011;66719;51.226;6.902;2023-04-15T08:23:39;14.10;;;5.00;;
4835;SDS011;66719;51.226;6.902;2023-04-15T08:26:06;13.00;;;5.30;;
4835;SDS011;66719;51.226;6.902;2023-04-15T08:28:33;12.80;;;5.20;;
4835;SDS011;66719;51.226;6.902;2023-04-15T08:31:00;11.60;;;5.03;;
4835;SDS011;66719;51.226;6.902;2023-04-15T08:33:27;13.13;;;5.30;;
4835;SDS011;66719;51.226;6.902;2023-04-15T08:35:54;10.80;;;4.63;;
4835;SDS011;66719;51.226;6.902;2023-04-15T08:38:20;13.70;;;6.37;;
4835;SDS011;66719;51.226;6.902;2023-04-15T08:40:48;12.77;;;6.13;;
4835;SDS011;66719;51.226;6.902;2023-04-15T08:43:21;12.87;;;5.90;;
4835;SDS011;66719;51.226;6.902;2023-04-15T08:45:53;14.60;;;5.80;;
4835;SDS011;66719;51.226;6.902;2023-04-15T08:48:20;14.30;;;5.93;;
4835;SDS011;66719;51.226;6.902;2023-04-15T08:50:49;15.50;;;5.50;;
4835;SDS011;66719;51.226;6.902;2023-04-15T08:53:16;14.40;;;6.40;;
4835;SDS011;66719;51.226;6.902;2023-04-15T08:55:44;14.00;;;6.60;;
4835;SDS011;66719;51.226;6.902;2023-04-15T08:58:12;14.70;;;6.00;;
4835;SDS011;66719;51.226;6.902;2023-04-15T09:00:39;12.33;;;6.00;;
4835;SDS011;66719;51.226;6.902;2023-04-15T09:03:06;19.67;;;7.47;;
4835;SDS011;66719;51.226;6.902;2023-04-15T09:05:34;12.90;;;5.63;;
4835;SDS011;66719;51.226;6.902;2023-04-15T09:08:02;15.50;;;6.60;;
4835;SDS011;66719;51.226;6.902;2023-04-15T09:10:29;14.47;;;5.90;;
4835;SDS011;66719;51.226;6.902;2023-04-15T09:12:57;11.50;;;5.10;;
4835;SDS011;66719;51.226;6.902;2023-04-15T09:15:24;15.00;;;6.80;;
4835;SDS011;66719;51.226;6.902;2023-04-15T09:17:52;14.30;;;5.73;;
4835;SDS011;66719;51.226;6.902;2023-04-15T09:20:19;13.13;;;6.03;;
4835;SDS011;66719;51.226;6.902;2023-04-15T09:22:46;12.83;;;5.77;;
4835;SDS011;66719;51.226;6.902;2023-04-15T09:27:53;12.60;;;5.10;;
4835;SDS011;66719;51.226;6.902;2023-04-15T09:30:22;12.27;;;5.20;;
4835;SDS011;66719;51.226;6.902;2023-04-15T09:32:49;14.60;;;6.73;;
4835;SDS011;66719;51.226;6.902;2023-04-15T09:35:20;12.53;;;5.47;;
4835;SDS011;66719;51.226;6.902;2023-04-15T09:37:48;11.50;;;4.50;;
4835;SDS011;66719;51.226;6.902;2023-04-15T09:43:07;9.93;;;3.80;;
4835;SDS011;66719;51.226;6.902;2023-04-15T09:45:38;10.57;;;4.07;;
4835;SDS011;66719;51.226;6.902;2023-04-15T09:50:51;11.53;;;5.20;;
4835;SDS011;66719;51.226;6.902;2023-04-15T09:53:23;11.87;;;5.23;;
4835;SDS011;66719;51.226;6.902;2023-04-15T09:58:25;12.93;;;5.60;;
4835;SDS011;66719;51.226;6.902;2023-04-15T10:00:53;12.30;;;5.60;;
4835;SDS011;66719;51.226;6.902;2023-04-15T10:05:50;13.93;;;5.13;;
4835;SDS011;66719;51.226;6.902;2023-04-15T10:08:18;12.67;;;5.60;;
4835;SDS011;66719;51.226;6.902;2023-04-15T10:10:47;13.30;;;5.97;;
4835;SDS011;66719;51.226;6.902;2023-04-15T10:13:17;11.50;;;5.30;;
4835;SDS011;66719;51.226;6.902;2023-04-15T10:15:48;12.77;;;5.10;;
4835;SDS011;66719;51.226;6.902;2023-04-15T10:18:22;15.80;;;6.00;;
4835;SDS011;66719;51.226;6.902;2023-04-15T10:20:51;13.73;;;5.30;;
4835;SDS011;66719;51.226;6.902;2023-04-15T10:23:19;12.87;;;6.10;;
4835;SDS011;66719;51.226;6.902;2023-04-15T10:25:48;11.40;;;5.27;;
4835;SDS011;66719;51.226;6.902;2023-04-15T10:28:16;14.53;;;5.47;;
4835;SDS011;66719;51.226;6.902;2023-04-15T10:30:44;10.87;;;4.50;;
4835;SDS011;66719;51.226;6.902;2023-04-15T10:33:13;11.90;;;5.10;;
4835;SDS011;66719;51.226;6.902;2023-04-15T10:35:43;10.97;;;4.37;;
4835;SDS011;66719;51.226;6.902;2023-04-15T10:43:50;12.30;;;4.10;;
4835;SDS011;66719;51.226;6.902;2023-04-15T10:46:35;9.30;;;3.53;;
4835;SDS011;66719;51.226;6.902;2023-04-15T10:49:10;9.03;;;3.37;;
4835;SDS011;66719;51.226;6.902;2023-04-15T10:51:43;11.10;;;3.63;;
4835;SDS011;66719;51.226;6.902;2023-04-15T10:54:15;8.73;;;3.00;;
4835;SDS011;66719;51.226;6.902;2023-04-15T10:59:33;10.13;;;4.40;;
4835;SDS011;66719;51.226;6.902;2023-04-15T11:02:07;12.13;;;5.20;;
4835;SDS011;66719;51.226;6.902;2023-04-15T11:07:33;12.03;;;6.70;;
4835;SDS011;66719;51.226;6.902;2023-04-15T11:10:50;14.83;;;6.70;;
4835;SDS011;66719;51.226;6.902;2023-04-15T11:13:46;16.97;;;8.57;;
4835;SDS011;66719;51.226;6.902;2023-04-15T11:15:42;11.73;;;6.10;;
4835;SDS011;66719;51.226;6.902;2023-04-15T11:18:11;13.40;;;6.60;;
4835;SDS011;66719;51.226;6.902;2023-04-15T11:20:43;12.40;;;6.97;;
4835;SDS011;66719;51.226;6.902;2023-04-15T11:23:19;14.93;;;6.80;;
4835;SDS011;66719;51.226;6.902;2023-04-15T11:25:54;15.20;;;8.00;;
4835;SDS011;66719;51.226;6.902;2023-04-15T11:28:26;15.80;;;8.37;;
4835;SDS011;66719;51.226;6.902;2023-04-15T11:30:54;12.47;;;7.20;;
4835;SDS011;66719;51.226;6.902;2023-04-15T11:33:21;12.30;;;6.67;;
4835;SDS011;66719;51.226;6.902;2023-04-15T11:35:50;11.07;;;5.77;;
4835;SDS011;66719;51.226;6.902;2023-04-15T11:38:19;11.27;;;5.20;;
4835;SDS011;66719;51.226;6.902;2023-04-15T11:40:46;13.00;;;5.47;;
4835;SDS011;66719;51.226;6.902;2023-04-15T11:43:19;10.60;;;5.10;;
4835;SDS011;66719;51.226;6.902;2023-04-15T11:45:51;10.70;;;4.80;;
4835;SDS011;66719;51.226;6.902;2023-04-15T11:48:28;9.77;;;4.33;;
4835;SDS011;66719;51.226;6.902;2023-04-15T11:51:05;12.60;;;5.07;;
4835;SDS011;66719;51.226;6.902;2023-04-15T11:53:40;10.90;;;4.10;;
4835;SDS011;66719;51.226;6.902;2023-04-15T11:56:21;11.07;;;4.10;;
4835;SDS011;66719;51.226;6.902;2023-04-15T11:58:53;10.97;;;4.70;;
4835;SDS011;66719;51.226;6.902;2023-04-15T12:01:31;12.63;;;4.47;;
4835;SDS011;66719;51.226;6.902;2023-04-15T12:04:02;10.57;;;4.53;;
4835;SDS011;66719;51.226;6.902;2023-04-15T12:06:37;10.83;;;4.50;;
4835;SDS011;66719;51.226;6.902;2023-04-15T12:09:08;9.57;;;4.07;;
4835;SDS011;66719;51.226;6.902;2023-04-15T12:16:33;10.70;;;4.20;;
4835;SDS011;66719;51.226;6.902;2023-04-15T12:19:15;10.23;;;4.10;;
4835;SDS011;66719;51.226;6.902;2023-04-15T12:21:45;11.40;;;4.70;;
4835;SDS011;66719;51.226;6.902;2023-04-15T12:24:13;10.60;;;4.23;;
4835;SDS011;66719;51.226;6.902;2023-04-15T12:29:17;10.10;;;3.30;;
4835;SDS011;66719;51.226;6.902;2023-04-15T12:31:54;11.90;;;4.23;;
4835;SDS011;66719;51.226;6.902;2023-04-15T12:34:25;10.33;;;3.70;;
4835;SDS011;66719;51.226;6.902;2023-04-15T12:36:57;10.90;;;3.90;;
4835;SDS011;66719;51.226;6.902;2023-04-15T12:39:25;10.63;;;4.00;;
4835;SDS011;66719;51.226;6.902;2023-04-15T12:41:55;16.57;;;4.20;;
4835;SDS011;66719;51.226;6.902;2023-04-15T12:44:22;11.20;;;4.00;;
4835;SDS011;66719;51.226;6.902;2023-04-15T12:46:49;11.97;;;4.83;;
4835;SDS011;66719;51.226;6.902;2023-04-15T12:49:21;10.67;;;4.40;;
4835;SDS011;66719;51.226;6.902;2023-04-15T12:51:50;10.80;;;4.03;;
4835;SDS011;66719;51.226;6.902;2023-04-15T12:54:18;10.00;;;3.97;;
4835;SDS011;66719;51.226;6.902;2023-04-15T12:56:45;12.37;;;4.73;;
4835;SDS011;66719;51.226;6.902;2023-04-15T12:59:13;9.93;;;3.83;;
4835;SDS011;66719;51.226;6.902;2023-04-15T13:01:41;11.03;;;4.30;;
4835;SDS011;66719;51.226;6.902;2023-04-15T13:04:07;11.40;;;4.80;;
4835;SDS011;66719;51.226;6.902;2023-04-15T13:06:34;14.00;;;4.30;;
4835;SDS011;66719;51.226;6.902;2023-04-15T13:09:02;12.13;;;4.50;;
4835;SDS011;66719;51.226;6.902;2023-04-15T13:11:31;12.77;;;4.50;;
4835;SDS011;66719;51.226;6.902;2023-04-15T13:14:08;10.40;;;3.90;;
4835;SDS011;66719;51.226;6.902;2023-04-15T13:16:36;10.03;;;3.27;;
4835;SDS011;66719;51.226;6.902;2023-04-15T13:19:03;10.00;;;3.37;;
4835;SDS011;66719;51.226;6.902;2023-04-15T13:21:30;10.03;;;3.57;;
4835;SDS011;66719;51.226;6.902;2023-04-15T13:24:01;9.10;;;3.13;;
4835;SDS011;66719;51.226;6.902;2023-04-15T13:26:28;8.97;;;3.00;;
4835;SDS011;66719;51.226;6.902;2023-04-15T13:28:54;9.77;;;3.97;;
4835;SDS011;66719;51.226;6.902;2023-04-15T13:31:21;12.13;;;3.23;;
4835;SDS011;66719;51.226;6.902;2023-04-15T13:33:48;9.57;;;3.30;;
4835;SDS011;66719;51.226;6.902;2023-04-15T13:36:14;11.97;;;3.93;;
4835;SDS011;66719;51.226;6.902;2023-04-15T13:38:41;9.50;;;3.27;;
4835;SDS011;66719;51.226;6.902;2023-04-15T13:41:07;11.37;;;3.77;;
4835;SDS011;66719;51.226;6.902;2023-04-15T13:43:34;10.30;;;3.63;;
4835;SDS011;66719;51.226;6.902;2023-04-15T13:46:01;9.23;;;3.20;;
4835;SDS011;66719;51.226;6.902;2023-04-15T13:48:27;10.13;;;3.50;;
4835;SDS011;66719;51.226;6.902;2023-04-15T13:50:54;11.17;;;3.53;;
4835;SDS011;66719;51.226;6.902;2023-04-15T13:53:20;11.80;;;4.00;;
4835;SDS011;66719;51.226;6.902;2023-04-15T13:56:04;9.83;;;3.30;;
4835;SDS011;66719;51.226;6.902;2023-04-15T13:58:31;10.87;;;3.80;;
4835;SDS011;66719;51.226;6.902;2023-04-15T14:00:58;8.83;;;3.10;;
4835;SDS011;66719;51.226;6.902;2023-04-15T14:03:24;10.50;;;3.73;;
4835;SDS011;66719;51.226;6.902;2023-04-15T14:05:51;16.23;;;6.00;;
4835;SDS011;66719;51.226;6.902;2023-04-15T14:08:21;10.77;;;3.47;;
4835;SDS011;66719;51.226;6.902;2023-04-15T14:10:48;9.80;;;3.47;;
4835;SDS011;66719;51.226;6.902;2023-04-15T14:13:14;10.60;;;3.80;;
4835;SDS011;66719;51.226;6.902;2023-04-15T14:15:41;12.80;;;3.50;;
4835;SDS011;66719;51.226;6.902;2023-04-15T14:18:07;10.20;;;3.60;;
4835;SDS011;66719;51.226;6.902;2023-04-15T14:20:34;13.93;;;3.40;;
4835;SDS011;66719;51.226;6.902;2023-04-15T14:23:00;9.53;;;3.43;;
4835;SDS011;66719;51.226;6.902;2023-04-15T14:25:27;9.70;;;3.10;;
4835;SDS011;66719;51.226;6.902;2023-04-15T14:27:59;11.37;;;3.70;;
4835;SDS011;66719;51.226;6.902;2023-04-15T14:30:26;11.43;;;3.37;;
4835;SDS011;66719;51.226;6.902;2023-04-15T14:32:52;13.97;;;3.43;;
4835;SDS011;66719;51.226;6.902;2023-04-15T14:35:19;8.87;;;2.77;;
4835;SDS011;66719;51.226;6.902;2023-04-15T14:37:46;9.97;;;2.97;;
4835;SDS011;66719;51.226;6.902;2023-04-15T14:40:12;9.97;;;2.87;;
4835;SDS011;66719;51.226;6.902;2023-04-15T14:42:38;9.90;;;3.37;;
4835;SDS011;66719;51.226;6.902;2023-04-15T14:45:05;12.40;;;3.43;;
4835;SDS011;66719;51.226;6.902;2023-04-15T14:47:32;10.77;;;3.80;;
4835;SDS011;66719;51.226;6.902;2023-04-15T14:49:59;9.17;;;3.07;;
4835;SDS011;66719;51.226;6.902;2023-04-15T14:52:25;12.10;;;3.80;;
4835;SDS011;66719;51.226;6.902;2023-04-15T14:54:52;9.87;;;3.23;;
4835;SDS011;66719;51.226;6.902;2023-04-15T14:57:18;9.80;;;2.83;;
4835;SDS011;66719;51.226;6.902;2023-04-15T14:59:45;12.00;;;3.10;;
4835;SDS011;66719;51.226;6.902;2023-04-15T15:02:12;10.97;;;3.07;;
4835;SDS011;66719;51.226;6.902;2023-04-15T15:04:51;9.90;;;2.90;;
4835;SDS011;66719;51.226;6.902;2023-04-15T15:07:18;12.03;;;2.77;;
4835;SDS011;66719;51.226;6.902;2023-04-15T15:09:44;9.60;;;3.20;;
4835;SDS011;66719;51.226;6.902;2023-04-15T15:12:11;10.50;;;2.90;;
4835;SDS011;66719;51.226;6.902;2023-04-15T15:14:37;9.97;;;3.27;;
4835;SDS011;66719;51.226;6.902;2023-04-15T15:17:04;12.63;;;3.57;;
4835;SDS011;66719;51.226;6.902;2023-04-15T15:19:31;11.87;;;3.80;;
4835;SDS011;66719;51.226;6.902;2023-04-15T15:21:58;11.00;;;3.00;;
4835;SDS011;66719;51.226;6.902;2023-04-15T15:24:24;10.70;;;3.30;;